Flight Track Log - Related Links

Times and Time Zones

All times are in EDT time to prevent confusion due to time zone crossing. See the FLG3780 flight status page for this flight to view local times or setup timezone preferences in your user account.

Time Position Orientation Groundspeed Altitude Reporting Facility
EDT Latitude Longitude Course Direction KTS MPH feet Rate Location/Type
Fri 09:22:58 AM 42.7503 -73.8283 283° West 145 167 1,400  Level Boston Center
Fri 09:24:10 AM 42.7850 -73.8858 309° West 194 223 4,100 2,190 Climbing Boston Center
Fri 09:25:00 AM 42.8063 -74.1439 281° West  Level FlightAware Approximate
Fri 09:25:04 AM 42.8386 -73.9381 324° Northwest 260 299 6,000  Level Boston Center
Fri 09:26:00 AM 42.8233 -74.2628 281° West  Level FlightAware Approximate
Fri 09:26:04 AM 42.8986 -73.9792 333° Northwest 286 329 8,700  Level Boston Center
Fri 09:27:00 AM 42.8414 -74.3815 283° West  Level FlightAware Approximate
Fri 09:27:04 AM 42.9500 -74.0172 332° Northwest 286 329 11,200  Level Boston Center
Fri 09:28:00 AM 42.8611 -74.4997 283° West  Level FlightAware Approximate
Fri 09:28:04 AM 43.0194 -74.1214 312° West 282 325 13,300  Level Boston Center
Fri 09:29:04 AM 43.0222 -74.2067 273° West 284 327 15,000 2,250 Climbing Boston Center
Fri 09:30:04 AM 43.0325 -74.3603 275° West 311 358 17,800 2,150 Climbing Boston Center
Fri 09:31:04 AM 43.0428 -74.4856 276° West 324 373 19,300 1,700 Climbing Boston Center
Fri 09:32:04 AM 43.0531 -74.6081 277° West 329 379 21,200 1,650 Climbing Boston Center
Fri 09:33:04 AM 43.0611 -74.7306 275° West 334 384 22,600 1,400 Climbing Boston Center
Fri 09:34:04 AM 43.0708 -74.8589 276° West 334 384 24,000 1,300 Climbing Boston Center
Fri 09:35:04 AM 43.0783 -74.9872 275° West 334 384 25,200 1,150 Climbing Boston Center
Fri 09:36:04 AM 43.0900 -75.1183 277° West 339 390 26,300 1,050 Climbing Boston Center
Fri 09:37:04 AM 43.0994 -75.2497 276° West 350 403 27,300 800 Climbing Boston Center
Fri 09:38:04 AM 43.1067 -75.3694 275° West 350 403 27,900 350 Climbing Boston Center
Fri 09:39:04 AM 43.1178 -75.5094 276° West 355 409 28,000 50 Climbing Boston Center
Fri 09:40:04 AM 43.1261 -75.6550 275° West 374 430 28,000  Level Boston Center
Fri 09:41:04 AM 43.1364 -75.8033 275° West 387 445 28,000  Level Boston Center
Fri 09:42:04 AM 43.1467 -75.9492 276° West 387 445 28,000  Level Boston Center
Fri 09:43:45 AM 43.1594 -76.2197 274° West 383 441 28,000  Level Cleveland Center
Fri 09:44:45 AM 43.1464 -76.3714 263° West 391 450 28,000  Level Cleveland Center
Fri 09:45:45 AM 43.1331 -76.5233 263° West 396 456 28,000  Level Cleveland Center
Fri 09:46:45 AM 43.1217 -76.6747 264° West 401 461 28,000  Level Cleveland Center
Fri 09:47:45 AM 43.1078 -76.8236 263° West 401 461 28,000  Level Cleveland Center
Fri 09:48:45 AM 43.0939 -76.9750 263° West 406 467 28,000  Level Cleveland Center
Fri 09:49:45 AM 43.0817 -77.1208 264° West 406 467 28,000  Level Cleveland Center
Fri 09:50:45 AM 43.0689 -77.2581 263° West 406 467 28,000  Level Cleveland Center
Fri 09:51:45 AM 43.0544 -77.4067 262° West 406 467 28,000  Level Cleveland Center
Fri 09:52:45 AM 43.0397 -77.5550 262° West 406 467 28,000  Level Cleveland Center
Fri 09:53:45 AM 43.0247 -77.7064 262° West 406 467 28,000  Level Cleveland Center
Fri 09:54:45 AM 43.0117 -77.8517 263° West 406 467 28,000  Level Cleveland Center
Fri 09:55:45 AM 42.9964 -78.0028 262° West 411 473 28,000  Level Cleveland Center
Fri 09:56:45 AM 42.9808 -78.1511 262° West 406 467 28,000  Level Cleveland Center
Fri 09:57:45 AM 42.9669 -78.2992 263° West 406 467 28,000  Level Cleveland Center
Fri 09:58:45 AM 42.9511 -78.4500 262° West 406 467 28,000  Level Cleveland Center
Fri 09:59:45 AM 42.9350 -78.5981 262° West 406 467 28,000  Level Cleveland Center
Fri 10:00:45 AM 42.9167 -78.7461 260° West 406 467 28,000  Level Cleveland Center
Fri 10:01:45 AM 42.8961 -78.8942 259° West 406 467 28,000  Level Cleveland Center
Fri 10:02:45 AM 42.8731 -79.0419 258° West 406 467 28,000  Level Cleveland Center
Fri 10:03:45 AM 42.8542 -79.1869 260° West 406 467 28,000  Level Cleveland Center
Fri 10:04:45 AM 42.8286 -79.3347 257° West 406 467 28,000  Level Cleveland Center
Fri 10:05:45 AM 42.8114 -79.4794 261° West 401 461 28,000  Level Cleveland Center
Fri 10:06:45 AM 42.7897 -79.6242 259° West 396 456 28,000  Level Cleveland Center
Fri 10:07:45 AM 42.7658 -79.7717 258° West 396 456 28,000  Level Cleveland Center
Fri 10:08:45 AM 42.7500 -79.9189 262° West 396 456 28,000  Level Cleveland Center
Fri 10:09:45 AM 42.7425 -80.0686 266° West 396 456 28,000  Level Cleveland Center
Fri 10:10:45 AM 42.7369 -80.2128 267° West 387 445 28,000  Level Cleveland Center
Fri 10:11:45 AM 42.7289 -80.3569 266° West 387 445 28,000  Level Cleveland Center
Fri 10:12:45 AM 42.7250 -80.5069 268° West 387 445 28,000  Level Cleveland Center
Fri 10:13:45 AM 42.7164 -80.6650 266° West 387 445 28,000 -200 Level Cleveland Center
Fri 10:14:45 AM 42.7100 -80.8147 267° West 387 445 27,600 -700 Descending Cleveland Center
Fri 10:15:45 AM 42.6992 -80.9561 264° West 387 445 26,600 -1,000 Descending Cleveland Center
Fri 10:16:45 AM 42.6842 -81.1028 262° West 392 451 25,600 -1,000 Descending Cleveland Center
Fri 10:17:45 AM 42.6667 -81.2411 260° West 386 444 24,600 -800 Descending Cleveland Center
Fri 10:18:45 AM 42.6511 -81.3850 262° West 386 444 24,000 -300 Descending Cleveland Center
Fri 10:19:45 AM 42.6356 -81.5258 262° West 386 444 24,000  Level Cleveland Center
Fri 10:20:45 AM 42.6156 -81.6750 260° West 391 450 24,000 -150 Level Cleveland Center
Fri 10:21:45 AM 42.5972 -81.8214 260° West 396 456 23,700 -1,300 Descending Cleveland Center
Fri 10:22:45 AM 42.5789 -81.9706 261° West 396 456 21,400 -2,300 Descending Cleveland Center
Fri 10:23:45 AM 42.5625 -82.1139 261° West 396 456 19,100 -2,100 Descending Cleveland Center
Fri 10:24:45 AM 42.5461 -82.2544 261° West 389 448 17,200 -2,200 Descending Cleveland Center
Fri 10:25:45 AM 42.5250 -82.3947 259° West 384 442 14,700 -2,500 Descending Cleveland Center
Fri 10:26:45 AM 42.5083 -82.5322 261° West 384 442 12,200 -2,104 Descending Cleveland Center
Fri 10:27:02 AM 42.4994 -82.5686 252° West 351 404 12,000 -700 Descending Cleveland Center
Fri 10:27:45 AM 42.4708 -82.6492 244° Southwest 368 423 11,500 -1,049 Descending Cleveland Center
Fri 10:28:45 AM 42.4378 -82.7467 245° Southwest 326 375 10,200 -1,250 Descending Cleveland Center
Fri 10:29:45 AM 42.4256 -82.8447 260° West 287 330 9,000 -1,350 Descending Cleveland Center
Fri 10:30:45 AM 42.4131 -82.9400 260° West 268 308 7,500 -1,500 Descending Cleveland Center
Fri 10:31:45 AM 42.4050 -83.0325 263° West 263 303 6,000 -1,400 Descending Cleveland Center
Fri 10:32:45 AM 42.3947 -83.1219 261° West 251 289 4,700 -1,325 Descending Cleveland Center
Fri 10:33:02 AM 42.3878 -83.1469 249° West 227 261 4,300 -1,100 Descending Cleveland Center
Fri 10:33:45 AM 42.3700 -83.1969 244° Southwest 234 269 3,600 -984 Descending Cleveland Center
Fri 10:34:03 AM 42.3614 -83.2161 239° Southwest 203 234 3,300 -600 Descending Cleveland Center
Fri 10:34:45 AM 42.3356 -83.2517 226° Southwest 211 243 3,000 -429 Descending Cleveland Center

Login

Don't have an account? Register now (free) for customized features, flight alerts, and more!